Time;durP1;ratioP1;P1;durP2;ratioP2;P2;SDS_P1;SDS_P2;PMS_P1;PMS_P2;Temp;Humidity;BMP_temperature;BMP_pressure;BME280_temperature;BME280_humidity;BME280_pressure;Samples;Min_cycle;Max_cycle;Signal;HPM_P1;HPM_P2
2021/07/29 00:01:19;;;;;;;6.13;3.72;;;26.70;61.30;;;;;;4152585;28;20054;-65
2021/07/29 00:03:21;;;;;;;5.60;4.05;;;26.70;60.80;;;;;;4152558;28;20057;-65
2021/07/29 00:05:23;;;;;;;9.65;5.07;;;26.70;60.70;;;;;;4152516;28;20046;-65
2021/07/29 00:07:25;;;;;;;11.02;5.82;;;26.70;60.80;;;;;;4152516;28;20078;-65
2021/07/29 00:09:27;;;;;;;7.03;4.78;;;26.70;60.30;;;;;;4152060;28;20092;-59
2021/07/29 00:11:30;;;;;;;9.65;4.70;;;26.60;60.20;;;;;;4152125;28;20046;-59
2021/07/29 00:13:32;;;;;;;5.07;4.13;;;26.60;60.10;;;;;;4151762;28;20046;-63
2021/07/29 00:15:34;;;;;;;7.75;4.40;;;26.60;60.00;;;;;;4151287;28;20080;-63
2021/07/29 00:19:50;;;;;;;10.32;4.88;;;26.70;59.70;;;;;;4151224;28;20050;-63
2021/07/29 00:21:52;;;;;;;9.57;4.63;;;26.60;60.20;;;;;;4151165;28;20056;-62
2021/07/29 00:23:54;;;;;;;10.02;5.13;;;26.70;60.40;;;;;;4151117;28;20050;-62
2021/07/29 00:25:56;;;;;;;9.50;4.00;;;26.70;59.90;;;;;;4151184;28;20058;-62
2021/07/29 00:27:58;;;;;;;11.85;5.00;;;26.70;60.20;;;;;;4151317;28;20129;-62
2021/07/29 00:30:00;;;;;;;7.35;4.55;;;26.70;60.30;;;;;;4151074;28;20054;-62
2021/07/29 00:32:04;;;;;;;9.02;4.93;;;26.70;60.40;;;;;;4150991;28;20054;-62
2021/07/29 00:34:06;;;;;;;7.43;5.13;;;26.60;60.30;;;;;;4151100;28;20130;-62
2021/07/29 00:36:08;;;;;;;12.02;5.03;;;26.70;60.40;;;;;;4151087;28;20050;-62
2021/07/29 00:38:10;;;;;;;8.63;4.90;;;26.60;60.40;;;;;;4151301;28;20046;-59
2021/07/29 00:40:13;;;;;;;7.47;4.70;;;26.60;60.60;;;;;;4151835;28;20050;-58
2021/07/29 00:42:15;;;;;;;8.40;4.25;;;26.60;60.30;;;;;;4151570;28;20068;-59
2021/07/29 00:44:17;;;;;;;10.93;5.28;;;26.60;60.60;;;;;;4151687;28;20054;-58
2021/07/29 00:46:19;;;;;;;14.93;5.20;;;26.60;60.50;;;;;;4151533;28;20050;-59
2021/07/29 00:48:21;;;;;;;9.30;5.00;;;26.60;60.60;;;;;;4151595;28;20054;-59
2021/07/29 00:50:23;;;;;;;9.35;5.45;;;26.60;60.50;;;;;;4151578;28;20046;-58
2021/07/29 00:52:25;;;;;;;12.63;5.38;;;26.60;60.70;;;;;;4151479;28;20053;-59
2021/07/29 00:54:28;;;;;;;11.07;5.47;;;26.60;60.80;;;;;;4151515;28;20072;-59
2021/07/29 00:56:31;;;;;;;8.55;4.57;;;26.60;60.80;;;;;;4151230;28;20057;-58
2021/07/29 00:58:33;;;;;;;7.07;5.05;;;26.60;60.70;;;;;;4150664;28;20061;-58
2021/07/29 01:00:35;;;;;;;8.10;4.78;;;26.60;60.70;;;;;;4151418;28;20085;-58
2021/07/29 01:02:38;;;;;;;7.68;4.65;;;26.60;60.80;;;;;;4151340;28;20046;-59
2021/07/29 01:04:40;;;;;;;12.05;4.88;;;26.60;60.90;;;;;;4151306;28;20081;-58
2021/07/29 01:06:43;;;;;;;10.65;4.88;;;26.60;60.90;;;;;;4151352;28;20050;-58
2021/07/29 01:09:08;;;;;;;10.02;5.18;;;26.60;60.80;;;;;;4151291;28;20056;-59
2021/07/29 01:11:10;;;;;;;14.75;5.20;;;26.60;60.90;;;;;;4150944;28;20082;-61
2021/07/29 01:13:12;;;;;;;11.23;6.13;;;26.60;61.10;;;;;;4151243;28;20050;-58
2021/07/29 01:15:14;;;;;;;11.63;6.00;;;26.60;61.30;;;;;;4151294;28;20072;-58
2021/07/29 01:17:16;;;;;;;8.00;5.13;;;26.60;62.10;;;;;;4151154;28;20073;-67
2021/07/29 01:19:21;;;;;;;8.23;5.25;;;26.50;62.20;;;;;;4151138;28;20110;-58
2021/07/29 01:21:27;;;;;;;121.80;84.97;;;26.50;62.00;;;;;;4151186;28;20142;-59
2021/07/29 01:23:32;;;;;;;74.40;43.55;;;26.50;61.90;;;;;;4151184;28;20114;-59
2021/07/29 01:25:35;;;;;;;44.75;30.05;;;26.50;61.60;;;;;;4151208;28;20047;-60
2021/07/29 01:27:37;;;;;;;28.35;18.77;;;26.50;61.50;;;;;;4150330;28;20047;-60
2021/07/29 01:29:39;;;;;;;25.00;13.48;;;26.50;61.30;;;;;;4151090;28;20132;-61
2021/07/29 01:31:41;;;;;;;19.98;12.20;;;26.50;61.20;;;;;;4151078;28;20106;-60
2021/07/29 01:33:43;;;;;;;21.33;13.63;;;26.60;61.20;;;;;;4151105;28;20046;-60
2021/07/29 01:35:46;;;;;;;18.95;10.50;;;26.50;61.10;;;;;;4150968;28;20042;-60
2021/07/29 01:37:47;;;;;;;18.50;11.35;;;26.50;61.10;;;;;;4151084;28;20046;-59
2021/07/29 01:39:50;;;;;;;16.35;11.50;;;26.60;61.10;;;;;;4150993;28;20129;-60
2021/07/29 01:41:52;;;;;;;19.90;11.63;;;26.60;61.20;;;;;;4150012;28;20062;-61
2021/07/29 01:43:54;;;;;;;19.00;11.95;;;26.50;61.20;;;;;;4150926;28;20109;-60
2021/07/29 01:45:57;;;;;;;22.67;12.50;;;26.60;61.30;;;;;;4150136;28;20052;-61
2021/07/29 01:47:59;;;;;;;22.27;11.82;;;26.50;61.00;;;;;;4150937;28;20050;-60
2021/07/29 01:50:01;;;;;;;25.52;13.10;;;26.50;61.20;;;;;;4149891;28;20050;-60
2021/07/29 01:52:04;;;;;;;25.75;13.45;;;26.60;61.10;;;;;;4150859;28;20080;-60
2021/07/29 01:54:06;;;;;;;18.23;11.68;;;26.60;61.00;;;;;;4150778;28;20046;-60
2021/07/29 01:56:08;;;;;;;19.08;11.55;;;26.50;61.20;;;;;;4150731;28;20053;-60
2021/07/29 01:58:11;;;;;;;20.23;12.35;;;26.50;61.20;;;;;;4150031;28;20050;-70
2021/07/29 02:00:14;;;;;;;25.48;11.55;;;26.50;61.10;;;;;;4150603;28;20052;-70
2021/07/29 02:02:16;;;;;;;19.30;11.68;;;26.50;61.20;;;;;;4150248;28;20077;-70
2021/07/29 02:04:18;;;;;;;22.15;10.93;;;26.50;61.20;;;;;;4150175;28;20056;-69
2021/07/29 02:06:20;;;;;;;18.50;11.30;;;26.50;61.10;;;;;;4150707;28;20054;-70
2021/07/29 02:08:23;;;;;;;16.40;11.52;;;26.50;61.10;;;;;;4150128;28;20057;-63
2021/07/29 02:10:26;;;;;;;24.92;12.23;;;26.60;61.30;;;;;;4150566;28;20046;-63
2021/07/29 02:12:29;;;;;;;20.42;11.23;;;26.60;61.00;;;;;;4150643;28;20050;-66
2021/07/29 02:14:31;;;;;;;17.88;10.57;;;26.60;61.00;;;;;;4150584;28;20046;-66
2021/07/29 02:16:33;;;;;;;22.25;11.80;;;26.60;61.00;;;;;;4150506;28;20046;-66
2021/07/29 02:18:35;;;;;;;18.67;11.02;;;26.60;61.00;;;;;;4150544;28;20403;-66
2021/07/29 02:20:37;;;;;;;20.45;11.82;;;26.60;61.10;;;;;;4150505;28;20055;-66
2021/07/29 02:22:39;;;;;;;20.83;10.13;;;26.50;61.20;;;;;;4150532;28;20046;-66
2021/07/29 02:24:41;;;;;;;18.50;10.60;;;26.50;61.10;;;;;;4150481;28;20050;-66
2021/07/29 02:26:43;;;;;;;16.60;10.40;;;26.50;61.10;;;;;;4150425;28;20050;-66
2021/07/29 02:28:45;;;;;;;21.02;9.80;;;26.50;61.00;;;;;;4150314;28;20050;-66
2021/07/29 02:30:47;;;;;;;18.13;9.75;;;26.50;61.10;;;;;;4150431;28;20053;-67
2021/07/29 02:32:51;;;;;;;13.60;8.80;;;26.50;61.10;;;;;;4150311;28;20110;-66
2021/07/29 02:34:54;;;;;;;19.88;9.70;;;26.50;61.00;;;;;;4150359;28;20082;-66
2021/07/29 02:36:56;;;;;;;15.38;9.23;;;26.50;61.10;;;;;;4149625;28;20060;-64
2021/07/29 02:38:58;;;;;;;17.27;10.10;;;26.50;61.10;;;;;;4149287;28;20110;-64
2021/07/29 02:41:00;;;;;;;19.27;9.65;;;26.50;61.00;;;;;;4149436;28;20064;-65
2021/07/29 02:43:02;;;;;;;20.58;9.48;;;26.50;61.20;;;;;;4149057;28;20055;-64
2021/07/29 02:45:05;;;;;;;16.42;8.73;;;26.50;61.10;;;;;;4149206;28;20050;-64
2021/07/29 02:47:07;;;;;;;17.48;9.57;;;26.50;61.10;;;;;;4150097;28;20050;-66
2021/07/29 02:49:09;;;;;;;16.42;9.15;;;26.50;61.20;;;;;;4150193;28;20053;-67
2021/07/29 02:51:11;;;;;;;21.52;9.85;;;26.50;61.10;;;;;;4150131;28;20054;-67
2021/07/29 02:53:13;;;;;;;19.75;10.45;;;26.50;61.20;;;;;;4150172;28;20101;-67
2021/07/29 02:55:15;;;;;;;16.33;11.00;;;26.50;61.20;;;;;;4149343;28;20042;-67
2021/07/29 02:57:17;;;;;;;30.60;14.13;;;26.50;61.30;;;;;;4150098;28;20050;-67
2021/07/29 02:59:19;;;;;;;19.90;11.25;;;26.50;61.30;;;;;;4149522;28;20476;-72
2021/07/29 03:01:21;;;;;;;15.43;10.93;;;26.50;61.30;;;;;;4149702;28;20054;-69
2021/07/29 03:03:24;;;;;;;14.25;10.38;;;26.50;61.30;;;;;;4150066;28;20053;-69
2021/07/29 03:05:26;;;;;;;20.10;11.10;;;26.50;61.30;;;;;;4149923;28;20065;-69
2021/07/29 03:07:30;;;;;;;16.92;11.05;;;26.40;61.10;;;;;;4150083;28;20081;-69
2021/07/29 03:09:32;;;;;;;21.58;10.90;;;26.50;61.20;;;;;;4149982;28;20050;-68
2021/07/29 03:11:35;;;;;;;18.67;10.73;;;26.50;61.20;;;;;;4149243;28;20478;-68
2021/07/29 03:13:37;;;;;;;13.52;9.32;;;26.50;61.10;;;;;;4149983;28;20048;-68
2021/07/29 03:15:39;;;;;;;14.73;9.07;;;26.50;61.10;;;;;;4150118;28;20050;-68
2021/07/29 03:17:41;;;;;;;15.77;9.63;;;26.50;61.10;;;;;;4149169;28;20057;-68
2021/07/29 03:19:43;;;;;;;16.35;9.93;;;26.50;61.10;;;;;;4151275;28;20046;-69
2021/07/29 03:21:45;;;;;;;17.30;8.75;;;26.50;61.20;;;;;;4153147;28;20042;-69
2021/07/29 03:23:47;;;;;;;19.58;9.52;;;26.50;61.20;;;;;;4152769;28;20049;-64
2021/07/29 03:25:50;;;;;;;16.23;8.48;;;26.50;61.10;;;;;;4152225;28;20042;-64
2021/07/29 03:27:52;;;;;;;14.13;8.75;;;26.50;61.20;;;;;;4152277;28;20073;-65
2021/07/29 03:29:54;;;;;;;15.93;8.70;;;26.50;61.20;;;;;;4151941;28;20046;-65
2021/07/29 03:31:57;;;;;;;12.60;8.48;;;26.50;61.20;;;;;;4152069;28;20069;-64
2021/07/29 03:33:59;;;;;;;16.10;8.57;;;26.50;61.30;;;;;;4151935;28;20046;-63
2021/07/29 03:36:01;;;;;;;14.95;7.80;;;26.50;61.70;;;;;;4153762;28;20052;-63
2021/07/29 03:38:03;;;;;;;14.88;8.10;;;26.50;61.40;;;;;;4157612;28;20047;-62
2021/07/29 03:40:06;;;;;;;19.52;8.35;;;26.50;61.20;;;;;;4154967;28;21057;-62
2021/07/29 03:42:08;;;;;;;14.75;8.35;;;26.60;61.30;;;;;;4142218;28;20147;-62
2021/07/29 03:44:10;;;;;;;12.68;8.30;;;26.50;61.30;;;;;;4135722;28;20061;-62
2021/07/29 03:46:12;;;;;;;17.88;9.38;;;26.50;61.30;;;;;;4135572;28;20050;-62
2021/07/29 03:48:14;;;;;;;19.05;8.68;;;26.50;61.40;;;;;;4135802;28;20050;-63
2021/07/29 03:50:16;;;;;;;15.40;8.98;;;26.60;61.40;;;;;;4135489;28;20043;-62
2021/07/29 03:52:18;;;;;;;13.05;7.70;;;26.50;61.40;;;;;;4143071;28;20073;-62
2021/07/29 03:54:20;;;;;;;15.45;7.75;;;26.50;61.40;;;;;;4145396;28;20118;-63
2021/07/29 03:56:22;;;;;;;16.80;8.48;;;26.50;61.40;;;;;;4135395;28;20055;-63
2021/07/29 03:58:24;;;;;;;20.25;7.68;;;26.50;61.30;;;;;;4151180;28;20053;-63
2021/07/29 04:00:27;;;;;;;25.50;9.07;;;26.50;61.50;;;;;;4144706;28;20054;-63
2021/07/29 04:02:29;;;;;;;13.35;7.97;;;26.50;61.60;;;;;;4135386;28;20051;-63
2021/07/29 04:04:32;;;;;;;14.27;7.13;;;26.50;61.50;;;;;;4135294;28;20051;-62
2021/07/29 04:06:34;;;;;;;15.63;7.50;;;26.50;61.60;;;;;;4135308;28;20046;-62
2021/07/29 04:08:36;;;;;;;11.63;7.57;;;26.50;61.60;;;;;;4135308;28;20051;-62
2021/07/29 04:10:38;;;;;;;15.23;7.55;;;26.50;61.70;;;;;;4135426;28;20057;-63
2021/07/29 04:12:40;;;;;;;17.27;8.05;;;26.50;61.70;;;;;;4135370;28;20046;-63
2021/07/29 04:14:43;;;;;;;13.45;7.53;;;26.50;61.70;;;;;;4135251;28;20047;-62
2021/07/29 04:16:45;;;;;;;21.17;11.07;;;26.50;62.10;;;;;;4135266;28;20070;-62
2021/07/29 04:18:47;;;;;;;14.07;8.50;;;26.50;62.10;;;;;;4135203;28;20069;-62
2021/07/29 04:20:49;;;;;;;12.90;7.72;;;26.50;62.00;;;;;;4135097;28;20050;-62
2021/07/29 04:22:51;;;;;;;11.43;6.85;;;26.50;61.70;;;;;;4135215;28;20051;-62
2021/07/29 04:24:55;;;;;;;16.30;8.18;;;26.50;61.60;;;;;;4135043;28;20051;-62
2021/07/29 04:26:58;;;;;;;11.70;7.60;;;26.50;61.60;;;;;;4135084;28;20051;-62
2021/07/29 04:29:00;;;;;;;13.73;7.38;;;26.50;61.60;;;;;;4134936;28;20059;-62
2021/07/29 04:31:02;;;;;;;16.80;8.38;;;26.50;61.50;;;;;;4134329;28;20061;-60
2021/07/29 04:33:10;;;;;;;22.55;15.48;;;26.60;61.50;;;;;;4135263;28;20050;-59
2021/07/29 04:35:12;;;;;;;23.70;10.55;;;26.60;62.50;;;;;;4143703;28;20438;-59
2021/07/29 04:37:15;;;;;;;23.13;10.55;;;26.50;63.30;;;;;;4151240;28;20052;-60
2021/07/29 04:39:17;;;;;;;22.05;12.60;;;26.50;62.80;;;;;;4151233;28;20516;-62
2021/07/29 04:41:19;;;;;;;27.25;15.93;;;26.50;62.60;;;;;;4150492;28;20050;-64
2021/07/29 04:43:21;;;;;;;22.20;10.02;;;26.50;62.80;;;;;;4151226;28;20062;-61
2021/07/29 04:45:24;;;;;;;19.95;9.50;;;26.50;63.00;;;;;;4152074;28;20065;-60
2021/07/29 04:47:26;;;;;;;16.65;8.27;;;26.50;63.00;;;;;;4151880;28;20050;-60
2021/07/29 04:49:28;;;;;;;21.35;10.32;;;26.50;63.40;;;;;;4151861;28;20057;-61
2021/07/29 04:51:32;;;;;;;20.08;8.63;;;26.40;64.20;;;;;;4151247;28;20046;-65
2021/07/29 04:53:34;;;;;;;21.15;8.35;;;26.40;63.40;;;;;;4150764;28;20054;-64
2021/07/29 04:55:36;;;;;;;21.33;9.00;;;26.40;62.90;;;;;;4150573;28;20046;-62
2021/07/29 04:57:38;;;;;;;20.15;9.48;;;26.40;63.30;;;;;;4150350;28;20076;-61
2021/07/29 04:59:41;;;;;;;26.95;10.02;;;26.50;63.10;;;;;;4151798;28;20042;-61
2021/07/29 05:01:43;;;;;;;25.92;9.95;;;26.50;63.30;;;;;;4150809;28;20101;-60
2021/07/29 05:03:46;;;;;;;22.05;9.82;;;26.50;63.00;;;;;;4151037;28;20088;-63
2021/07/29 05:05:49;;;;;;;23.92;9.40;;;26.50;62.90;;;;;;4151429;28;20057;-63
2021/07/29 05:07:52;;;;;;;16.95;8.18;;;26.50;63.20;;;;;;4150776;28;20046;-62
2021/07/29 05:09:54;;;;;;;21.02;8.65;;;26.50;63.20;;;;;;4151424;28;20543;-61
2021/07/29 05:11:56;;;;;;;38.95;11.48;;;26.50;63.20;;;;;;4151216;28;20050;-58
2021/07/29 05:13:58;;;;;;;24.20;9.50;;;26.50;63.50;;;;;;4151413;28;20047;-58
2021/07/29 05:16:04;;;;;;;22.08;8.95;;;26.50;62.90;;;;;;4151419;28;20050;-65
2021/07/29 05:18:06;;;;;;;18.80;8.18;;;26.50;63.10;;;;;;4151157;28;20092;-66
2021/07/29 05:20:10;;;;;;;21.63;9.85;;;26.50;62.80;;;;;;4151081;28;20052;-62
2021/07/29 05:22:12;;;;;;;30.80;17.83;;;26.50;62.60;;;;;;4151291;28;20118;-62
2021/07/29 05:24:14;;;;;;;61.13;38.63;;;26.50;62.40;;;;;;4151273;28;20064;-64
2021/07/29 05:26:17;;;;;;;66.28;38.78;;;26.60;62.60;;;;;;4150784;28;20050;-63
2021/07/29 05:28:19;;;;;;;51.45;33.50;;;26.50;62.50;;;;;;4150704;28;20057;-65
2021/07/29 05:30:21;;;;;;;43.67;28.20;;;26.60;62.40;;;;;;4150159;28;20051;-64
2021/07/29 05:32:23;;;;;;;38.20;25.13;;;26.50;62.40;;;;;;4149910;28;20053;-65
2021/07/29 05:34:28;;;;;;;34.80;22.85;;;26.60;62.30;;;;;;4149672;28;20054;-60
2021/07/29 05:36:30;;;;;;;32.78;21.83;;;26.60;62.30;;;;;;4151112;28;20070;-60
2021/07/29 05:38:33;;;;;;;39.08;22.42;;;26.60;62.40;;;;;;4151124;28;20064;-58
2021/07/29 05:40:35;;;;;;;30.17;18.08;;;26.60;62.40;;;;;;4151021;28;20053;-65
2021/07/29 05:42:38;;;;;;;37.45;21.75;;;26.60;62.30;;;;;;4149926;28;20061;-64
2021/07/29 05:44:40;;;;;;;35.92;21.92;;;26.60;62.40;;;;;;4150157;28;20047;-63
2021/07/29 05:46:42;;;;;;;29.98;19.02;;;26.60;62.30;;;;;;4150703;28;20055;-63
2021/07/29 05:48:44;;;;;;;27.08;17.30;;;26.60;62.30;;;;;;4149597;28;20046;-64
2021/07/29 05:50:46;;;;;;;24.20;16.98;;;26.60;62.20;;;;;;4149904;28;20052;-62
2021/07/29 05:52:48;;;;;;;49.58;20.98;;;26.60;62.30;;;;;;4150621;28;20052;-58
2021/07/29 05:54:50;;;;;;;25.35;17.02;;;26.60;62.80;;;;;;4150689;28;20053;-58
2021/07/29 05:56:52;;;;;;;34.38;22.63;;;26.60;62.50;;;;;;4149694;28;20080;-64
2021/07/29 05:58:54;;;;;;;29.25;18.02;;;26.60;62.80;;;;;;4149223;28;20046;-66
2021/07/29 06:00:57;;;;;;;34.50;20.80;;;26.60;62.70;;;;;;4149443;28;20057;-66
2021/07/29 06:02:59;;;;;;;35.20;22.88;;;26.60;62.80;;;;;;4149764;28;20064;-65
2021/07/29 06:05:02;;;;;;;32.22;23.33;;;26.60;62.80;;;;;;4149166;28;20117;-65
2021/07/29 06:07:09;;;;;;;27.23;20.30;;;26.60;63.10;;;;;;4149514;28;20392;-66
2021/07/29 06:09:11;;;;;;;34.78;23.73;;;26.60;62.70;;;;;;4149285;28;20046;-62
2021/07/29 06:11:13;;;;;;;34.70;23.05;;;26.60;62.60;;;;;;4149056;28;20065;-62
2021/07/29 06:13:15;;;;;;;31.17;23.30;;;26.70;62.80;;;;;;4148871;28;20046;-62
2021/07/29 06:15:17;;;;;;;31.45;21.45;;;26.60;63.20;;;;;;4148863;28;20061;-61
2021/07/29 06:17:28;;;;;;;29.60;21.02;;;26.60;63.10;;;;;;4149358;28;20076;-62
2021/07/29 06:19:31;;;;;;;28.77;19.88;;;26.60;63.00;;;;;;4149964;28;20047;-62
2021/07/29 06:21:34;;;;;;;31.90;20.67;;;26.60;62.90;;;;;;4149467;28;20054;-64
2021/07/29 06:23:36;;;;;;;29.40;19.58;;;26.60;63.00;;;;;;4149367;28;20053;-65
2021/07/29 06:25:41;;;;;;;29.27;19.70;;;26.60;62.90;;;;;;4149241;28;20061;-60
2021/07/29 06:27:44;;;;;;;23.23;17.48;;;26.60;63.00;;;;;;4149256;28;20073;-59
2021/07/29 06:29:46;;;;;;;23.38;17.20;;;26.60;62.80;;;;;;4150322;28;20050;-58
2021/07/29 06:31:48;;;;;;;22.83;17.27;;;26.60;62.60;;;;;;4150296;28;20046;-58
2021/07/29 06:33:50;;;;;;;26.05;15.55;;;26.70;62.90;;;;;;4150479;28;20050;-59
2021/07/29 06:35:52;;;;;;;23.00;15.40;;;26.70;62.70;;;;;;4150340;28;20050;-59
2021/07/29 06:37:54;;;;;;;21.75;15.18;;;26.70;62.50;;;;;;4150324;28;20106;-58
2021/07/29 06:39:56;;;;;;;26.48;17.60;;;26.70;62.50;;;;;;4150067;28;20053;-64
2021/07/29 06:41:58;;;;;;;32.15;16.95;;;26.70;62.50;;;;;;4148879;28;20062;-63
2021/07/29 06:44:04;;;;;;;22.00;15.55;;;26.70;62.70;;;;;;4148875;28;20054;-65
2021/07/29 06:46:08;;;;;;;27.80;20.17;;;26.70;62.60;;;;;;4150159;28;20069;-57
2021/07/29 06:48:10;;;;;;;49.27;37.73;;;26.70;62.60;;;;;;4150248;28;20050;-58
2021/07/29 06:50:12;;;;;;;53.45;42.10;;;26.70;62.50;;;;;;4150111;28;20308;-59
2021/07/29 06:52:14;;;;;;;43.10;33.00;;;26.70;62.30;;;;;;4150115;28;20046;-60
2021/07/29 06:54:16;;;;;;;34.72;27.60;;;26.70;61.70;;;;;;4149901;28;20061;-59
2021/07/29 06:56:18;;;;;;;31.95;24.50;;;26.60;61.70;;;;;;4150160;28;20046;-59
2021/07/29 06:58:21;;;;;;;25.63;21.15;;;26.70;61.80;;;;;;4150099;28;20442;-59
2021/07/29 07:00:23;;;;;;;30.38;20.38;;;26.70;61.60;;;;;;4149822;28;20050;-63
2021/07/29 07:02:25;;;;;;;32.55;19.48;;;26.70;61.50;;;;;;4148561;28;20050;-61
2021/07/29 07:04:29;;;;;;;29.80;22.02;;;26.70;61.50;;;;;;4148318;28;20050;-61
2021/07/29 07:06:33;;;;;;;27.80;19.52;;;26.60;62.10;;;;;;4147666;28;20042;-62
2021/07/29 07:08:35;;;;;;;28.60;18.10;;;26.70;61.90;;;;;;4146952;28;20057;-61
2021/07/29 07:10:38;;;;;;;25.00;18.17;;;26.70;61.70;;;;;;4147034;28;20050;-61
2021/07/29 07:12:40;;;;;;;27.20;19.50;;;26.70;61.60;;;;;;4147649;28;20046;-64
2021/07/29 07:14:42;;;;;;;24.38;18.33;;;26.70;62.10;;;;;;4147549;28;20101;-64
2021/07/29 07:16:44;;;;;;;25.92;17.75;;;26.70;62.10;;;;;;4148192;28;20055;-64
2021/07/29 07:18:46;;;;;;;25.83;16.60;;;26.60;61.90;;;;;;4147979;28;20047;-64
2021/07/29 07:20:48;;;;;;;26.20;16.08;;;26.60;61.90;;;;;;4148102;28;20049;-64
2021/07/29 07:22:51;;;;;;;22.40;15.20;;;26.60;62.00;;;;;;4148134;28;20302;-64
2021/07/29 07:24:53;;;;;;;24.17;17.20;;;26.60;62.00;;;;;;4148425;28;20137;-64
2021/07/29 07:26:55;;;;;;;20.70;14.23;;;26.70;62.00;;;;;;4148822;28;20046;-64
2021/07/29 07:28:57;;;;;;;28.67;16.92;;;26.70;61.90;;;;;;4148221;28;20054;-63
2021/07/29 07:30:59;;;;;;;20.67;13.43;;;26.60;62.10;;;;;;4148421;28;20089;-64
2021/07/29 07:33:01;;;;;;;21.17;13.02;;;26.60;61.80;;;;;;4149521;28;20046;-62
2021/07/29 07:35:04;;;;;;;16.67;13.20;;;26.60;62.00;;;;;;4149845;28;20109;-61
2021/07/29 07:37:06;;;;;;;19.08;13.25;;;26.60;61.80;;;;;;4149857;28;20046;-61
2021/07/29 07:39:10;;;;;;;15.75;10.60;;;26.60;61.60;;;;;;4149806;28;20050;-62
2021/07/29 07:41:13;;;;;;;;;;;26.60;61.10;;;;;;4149095;28;20042;-64
2021/07/29 07:43:16;;;;;;;23.05;10.98;;;26.60;61.60;;;;;;4148222;28;19928;-63
2021/07/29 07:45:18;;;;;;;18.00;11.30;;;26.60;61.60;;;;;;4148055;28;20054;-64
2021/07/29 07:47:20;;;;;;;21.23;10.93;;;26.70;61.40;;;;;;4148227;28;20158;-64
2021/07/29 07:49:22;;;;;;;14.52;10.70;;;26.70;61.70;;;;;;4149093;28;20046;-63
2021/07/29 07:51:24;;;;;;;14.25;10.63;;;26.70;61.30;;;;;;4149617;28;20051;-61
2021/07/29 07:53:27;;;;;;;13.68;10.35;;;26.70;61.70;;;;;;4149014;28;20046;-61
2021/07/29 07:55:29;;;;;;;17.43;11.37;;;26.70;61.90;;;;;;4149417;28;20052;-58
2021/07/29 07:57:31;;;;;;;15.35;9.93;;;26.70;61.50;;;;;;4149369;28;20043;-58
2021/07/29 07:59:38;;;;;;;20.05;10.35;;;26.70;61.30;;;;;;4149375;28;20141;-58
2021/07/29 08:01:40;;;;;;;14.27;10.02;;;26.70;61.10;;;;;;4149188;28;20072;-61
2021/07/29 08:03:43;;;;;;;15.52;9.43;;;26.70;61.30;;;;;;4148243;28;20070;-60
2021/07/29 08:05:45;;;;;;;15.75;8.70;;;26.70;60.70;;;;;;4147578;28;20054;-60
2021/07/29 08:07:47;;;;;;;17.98;10.40;;;26.60;60.20;;;;;;4150861;28;20080;-61
2021/07/29 08:09:49;;;;;;;13.25;8.68;;;26.60;60.60;;;;;;4151069;28;20046;-61
2021/07/29 08:11:52;;;;;;;13.30;8.45;;;26.60;60.90;;;;;;4150940;28;20054;-61
2021/07/29 08:13:54;;;;;;;13.30;8.27;;;26.70;61.00;;;;;;4151158;28;20054;-65
2021/07/29 08:15:56;;;;;;;13.80;8.73;;;26.70;60.00;;;;;;4150959;28;20106;-66
2021/07/29 08:17:58;;;;;;;13.98;7.90;;;26.60;60.30;;;;;;4150587;28;20050;-61
2021/07/29 08:20:00;;;;;;;11.02;7.55;;;26.60;60.20;;;;;;4150872;28;20056;-61
2021/07/29 08:22:02;;;;;;;11.07;8.25;;;26.60;60.20;;;;;;4150895;28;20110;-61
2021/07/29 08:24:04;;;;;;;14.82;7.80;;;26.60;60.10;;;;;;4150895;28;20084;-63
2021/07/29 08:26:07;;;;;;;14.77;7.78;;;26.70;60.50;;;;;;4150489;28;20050;-61
2021/07/29 08:28:11;;;;;;;15.98;7.85;;;26.70;60.60;;;;;;4150810;28;20054;-61
2021/07/29 08:30:13;;;;;;;10.80;7.65;;;26.70;60.00;;;;;;4150390;28;20054;-58
2021/07/29 08:32:15;;;;;;;9.93;7.68;;;26.60;60.40;;;;;;4151103;28;20056;-58
2021/07/29 08:34:17;;;;;;;11.57;7.18;;;26.70;60.40;;;;;;4151311;28;20046;-58
2021/07/29 08:36:20;;;;;;;13.65;7.53;;;26.70;60.30;;;;;;4151024;28;20057;-58
2021/07/29 08:38:22;;;;;;;10.07;7.65;;;26.70;60.20;;;;;;4151312;28;20050;-58
2021/07/29 08:40:26;;;;;;;12.20;7.22;;;26.70;60.40;;;;;;4151295;28;20073;-58
2021/07/29 08:42:28;;;;;;;11.18;7.68;;;26.70;60.50;;;;;;4150733;28;20046;-58
2021/07/29 08:44:30;;;;;;;11.20;7.93;;;26.70;60.60;;;;;;4150584;28;20050;-58
2021/07/29 08:46:35;;;;;;;11.93;6.95;;;26.70;60.50;;;;;;4150988;28;20053;-57
2021/07/29 08:48:42;;;;;;;;;;;26.70;60.50;;;;;;4151217;28;20105;-65
2021/07/29 08:50:44;;;;;;;11.07;7.38;;;26.70;60.30;;;;;;4150713;28;19926;-58
2021/07/29 08:52:48;;;;;;;12.05;7.82;;;26.70;60.20;;;;;;4151068;28;20110;-57
2021/07/29 08:54:51;;;;;;;10.85;7.18;;;26.70;60.40;;;;;;4150847;28;20068;-58
2021/07/29 08:56:53;;;;;;;10.98;6.70;;;26.70;60.30;;;;;;4149650;28;20081;-61
2021/07/29 08:58:55;;;;;;;10.52;6.85;;;26.70;60.40;;;;;;4150253;28;20049;-63
2021/07/29 09:01:09;;;;;;;11.55;7.07;;;26.70;60.50;;;;;;4150295;28;20145;-63
2021/07/29 09:03:24;;;;;;;12.57;7.03;;;26.70;60.40;;;;;;4150517;28;20085;-63
2021/07/29 09:05:26;;;;;;;10.65;7.45;;;26.70;60.30;;;;;;4149901;28;20101;-63
2021/07/29 09:07:29;;;;;;;14.15;8.23;;;26.70;60.30;;;;;;4150203;28;20054;-63
2021/07/29 09:09:43;;;;;;;11.52;6.43;;;26.70;60.30;;;;;;4150092;28;20050;-63
2021/07/29 09:11:45;;;;;;;12.25;6.15;;;26.70;60.30;;;;;;4149624;28;20051;-62
2021/07/29 09:14:18;;;;;;;9.02;6.50;;;26.70;60.50;;;;;;4149977;28;20130;-62
2021/07/29 09:16:20;;;;;;;9.55;6.75;;;26.70;60.50;;;;;;4125849;28;20106;-65
2021/07/29 09:18:34;;;;;;;9.98;5.97;;;26.70;60.40;;;;;;4133803;28;20057;-66
2021/07/29 09:20:37;;;;;;;10.00;6.90;;;26.80;60.40;;;;;;4134595;28;20053;-61
2021/07/29 09:22:39;;;;;;;7.43;6.10;;;26.70;60.60;;;;;;4135255;28;20050;-62
2021/07/29 09:25:01;;;;;;;12.20;6.50;;;26.70;60.50;;;;;;4136472;28;20046;-61
2021/07/29 09:27:04;;;;;;;13.38;6.30;;;26.70;60.60;;;;;;4150765;28;20116;-60
2021/07/29 09:29:21;;;;;;;11.02;6.50;;;26.80;60.60;;;;;;4150477;28;20064;-59
2021/07/29 09:31:23;;;;;;;15.15;8.20;;;26.70;60.60;;;;;;4149439;28;20081;-60
2021/07/29 09:33:25;;;;;;;14.07;7.35;;;26.80;61.20;;;;;;4148989;28;20050;-63
2021/07/29 09:35:42;;;;;;;9.13;6.45;;;26.80;61.30;;;;;;4149637;28;20146;-62
2021/07/29 09:37:51;;;;;;;11.15;6.15;;;26.80;60.80;;;;;;4150199;28;20243;-61
2021/07/29 09:40:01;;;;;;;14.23;7.45;;;26.80;60.80;;;;;;4149945;28;20063;-60
2021/07/29 09:42:24;;;;;;;14.85;7.38;;;26.80;60.70;;;;;;4150603;28;20182;-61
2021/07/29 09:44:43;;;;;;;17.70;7.10;;;26.90;60.80;;;;;;4150967;28;20068;-62
2021/07/29 09:46:45;;;;;;;12.82;7.95;;;26.90;61.10;;;;;;4149558;28;20515;-66
2021/07/29 09:48:49;;;;;;;18.42;7.85;;;26.90;60.90;;;;;;4149466;28;20065;-67
2021/07/29 09:50:55;;;;;;;15.02;9.98;;;26.90;60.80;;;;;;4149684;28;20069;-64
2021/07/29 09:52:59;;;;;;;9.55;7.25;;;26.90;61.60;;;;;;4149679;28;20133;-63
2021/07/29 09:55:03;;;;;;;16.80;9.20;;;26.90;60.90;;;;;;4149040;28;20061;-60
2021/07/29 09:57:07;;;;;;;10.07;7.28;;;26.90;61.40;;;;;;4150790;28;20050;-61
2021/07/29 09:59:10;;;;;;;15.88;7.85;;;26.90;61.00;;;;;;4150213;28;20046;-64
2021/07/29 10:01:15;;;;;;;16.30;9.48;;;26.90;61.40;;;;;;4150563;28;20102;-59
2021/07/29 10:03:22;;;;;;;13.15;11.27;;;26.90;61.50;;;;;;4149790;28;20081;-58
2021/07/29 10:05:30;;;;;;;21.50;12.80;;;26.90;61.60;;;;;;4150577;28;20106;-62
2021/07/29 10:07:37;;;;;;;17.15;11.57;;;26.90;61.40;;;;;;4165220;28;20046;-60
2021/07/29 10:09:45;;;;;;;21.02;15.93;;;27.00;61.80;;;;;;4149924;28;20050;-60
2021/07/29 10:11:52;;;;;;;22.17;16.95;;;26.90;62.80;;;;;;4149384;28;20133;-61
2021/07/29 10:13:54;;;;;;;13.38;10.00;;;27.00;62.90;;;;;;4149378;28;20049;-61
2021/07/29 10:15:56;;;;;;;15.32;10.73;;;27.00;61.60;;;;;;4148845;28;20074;-63
2021/07/29 10:18:02;;;;;;;15.15;10.05;;;27.00;62.10;;;;;;4149149;28;20046;-63
2021/07/29 10:20:17;;;;;;;11.40;9.75;;;27.00;61.70;;;;;;4149201;28;20046;-63
2021/07/29 10:22:22;;;;;;;12.73;9.30;;;27.00;61.80;;;;;;4149336;28;20054;-64
2021/07/29 10:24:24;;;;;;;18.30;10.50;;;27.00;61.70;;;;;;4148964;28;20046;-62
2021/07/29 10:26:31;;;;;;;12.57;9.60;;;27.00;61.70;;;;;;4147839;28;20114;-62
2021/07/29 10:28:40;;;;;;;13.95;9.68;;;27.00;61.90;;;;;;4148865;28;20050;-63
2021/07/29 10:30:57;;;;;;;14.45;10.43;;;27.00;61.70;;;;;;4148878;28;20062;-63
2021/07/29 10:33:15;;;;;;;14.38;11.40;;;27.00;61.80;;;;;;4148814;28;20111;-62